Time;durP1;ratioP1;P1;durP2;ratioP2;P2;SDS_P1;SDS_P2;PMS_P1;PMS_P2;Temp;Humidity;BMP_temperature;BMP_pressure;BME280_temperature;BME280_humidity;BME280_pressure;Samples;Min_cycle;Max_cycle;Signal;HPM_P1;HPM_P2
2022/11/15 00:01:29;;;;;;;;;;;;;;;14.19;100.00;98382.09;5019635;28;19971;-42
2022/11/15 00:03:54;;;;;;;;;;;;;;;13.90;100.00;98382.91;5019073;28;19982;-42
2022/11/15 00:06:19;;;;;;;;;;;;;;;14.01;100.00;98377.94;5020660;28;19925;-42
2022/11/15 00:08:45;;;;;;;;;;;;;;;14.15;100.00;98379.78;5018883;28;20012;-42
2022/11/15 00:11:10;;;;;;;;;;;;;;;13.98;100.00;98378.97;5020948;28;20410;-42
2022/11/15 00:13:36;;;;;;;;;;;;;;;14.25;100.00;98385.25;5020207;28;19920;-42
2022/11/15 00:16:01;;;;;;;;;;;;;;;13.68;100.00;98385.81;5021256;28;20408;-42
2022/11/15 00:18:26;;;;;;;;;;;;;;;14.39;100.00;98382.69;5017419;28;20331;-42
2022/11/15 00:20:51;;;;;;;;;;;;;;;14.37;100.00;98379.38;5003298;28;20386;-42
2022/11/15 00:23:17;;;;;;;;;;;;;;;14.03;100.00;98376.13;5019545;28;20551;-42
2022/11/15 00:25:42;;;;;;;;;;;;;;;13.95;100.00;98378.28;5018192;28;19944;-42
2022/11/15 00:28:07;;;;;;;;;;;;;;;14.13;100.00;98372.06;5019070;28;19929;-42
2022/11/15 00:30:32;;;;;;;;;;;;;;;14.42;100.00;98367.81;5018913;28;19952;-42
2022/11/15 00:33:01;;;;;;;;;;;;;;;14.59;100.00;98369.44;5020673;28;20283;-41
2022/11/15 00:35:27;;;;;;;;;;;;;;;15.12;100.00;98361.16;5019096;28;19921;-42
2022/11/15 00:37:52;;;;;;;;;;;;;;;15.02;100.00;98360.91;5018911;28;19925;-42
2022/11/15 00:40:17;;;;;;;;;;;;;;;15.09;100.00;98356.16;5019398;28;20302;-41
2022/11/15 00:42:42;;;;;;;;;;;;;;;15.24;100.00;98355.25;5018586;28;19959;-41
2022/11/15 00:45:08;;;;;;;;;;;;;;;14.76;100.00;98354.69;5021047;28;19960;-42
2022/11/15 00:47:33;;;;;;;;;;;;;;;14.75;100.00;98343.47;5019605;28;20266;-42
2022/11/15 00:49:58;;;;;;;;;;;;;;;15.01;100.00;98348.88;5017337;28;20310;-42
2022/11/15 00:52:24;;;;;;;;;;;;;;;15.00;100.00;98347.19;5019758;28;19921;-42
2022/11/15 00:54:49;;;;;;;;;;;;;;;15.12;100.00;98335.22;5016899;28;19943;-40
2022/11/15 00:57:14;;;;;;;;;;;;;;;15.31;100.00;98348.75;5018819;28;19921;-40
2022/11/15 00:59:39;;;;;;;;;;;;;;;14.41;100.00;98344.59;5019471;28;19925;-40
2022/11/15 01:02:05;;;;;;;;;;;;;;;14.35;100.00;98347.56;5018925;28;19947;-40
2022/11/15 01:04:30;;;;;;;;;;;;;;;14.67;100.00;98357.84;5020738;28;20032;-40
2022/11/15 01:06:55;;;;;;;;;;;;;;;15.34;100.00;98355.50;5017989;28;20008;-40
2022/11/15 01:09:20;;;;;;;;;;;;;;;14.71;100.00;98352.38;5019067;28;20016;-42
2022/11/15 01:11:45;;;;;;;;;;;;;;;14.04;100.00;98361.41;5017879;28;19960;-42
2022/11/15 01:14:11;;;;;;;;;;;;;;;14.37;100.00;98362.09;5020052;28;19932;-42
2022/11/15 01:16:36;;;;;;;;;;;;;;;14.62;100.00;98358.09;5019887;28;19920;-42
2022/11/15 01:19:01;;;;;;;;;;;;;;;14.22;100.00;98345.66;5019110;28;19921;-42
2022/11/15 01:21:26;;;;;;;;;;;;;;;14.46;100.00;98352.09;5018190;28;19964;-40
2022/11/15 01:23:55;;;;;;;;;;;;;;;14.48;100.00;98353.66;5019694;28;19932;-41
2022/11/15 01:26:20;;;;;;;;;;;;;;;14.28;100.00;98360.03;5019779;28;20278;-42
2022/11/15 01:28:46;;;;;;;;;;;;;;;13.78;100.00;98353.34;5019845;28;19921;-41
2022/11/15 01:31:12;;;;;;;;;;;;;;;14.09;100.00;98355.03;5017745;28;19913;-41
2022/11/15 01:33:37;;;;;;;;;;;;;;;14.47;100.00;98353.78;5018942;28;19956;-42
2022/11/15 01:36:06;;;;;;;;;;;;;;;13.94;100.00;98358.50;5017877;28;20118;-42
2022/11/15 01:38:31;;;;;;;;;;;;;;;14.17;100.00;98352.84;5018196;28;20016;-42
2022/11/15 01:40:56;;;;;;;;;;;;;;;13.81;100.00;98356.59;5018694;28;20000;-42
2022/11/15 01:43:29;;;;;;;;;;;;;;;14.10;100.00;98358.47;5016511;28;19932;-42
2022/11/15 01:46:13;;;;;;;;;;;;;;;14.22;100.00;98350.84;5019333;28;19921;-42
2022/11/15 01:48:38;;;;;;;;;;;;;;;13.87;100.00;98349.44;5016292;28;19928;-42
2022/11/15 01:51:04;;;;;;;;;;;;;;;14.47;100.00;98353.78;5018619;28;19918;-42
2022/11/15 01:53:30;;;;;;;;;;;;;;;14.63;100.00;98352.81;5018607;28;19988;-42
2022/11/15 01:55:55;;;;;;;;;;;;;;;14.20;100.00;98341.50;5017831;28;19920;-42
2022/11/15 01:58:20;;;;;;;;;;;;;;;14.71;100.00;98335.97;5018144;28;19921;-42
2022/11/15 02:00:47;;;;;;;;;;;;;;;14.44;100.00;98336.66;5018026;28;19924;-42
2022/11/15 02:03:12;;;;;;;;;;;;;;;14.81;100.00;98342.28;5018157;28;19917;-42
2022/11/15 02:05:38;;;;;;;;;;;;;;;14.31;100.00;98333.94;5016792;28;20278;-41
2022/11/15 02:08:03;;;;;;;;;;;;;;;15.09;100.00;98351.81;5017900;28;19918;-42
2022/11/15 02:10:28;;;;;;;;;;;;;;;14.95;100.00;98337.09;5017555;28;20102;-42
2022/11/15 02:12:53;;;;;;;;;;;;;;;14.46;100.00;98342.59;5017078;28;19917;-42
2022/11/15 02:15:19;;;;;;;;;;;;;;;14.43;100.00;98342.75;5016886;28;19921;-41
2022/11/15 02:17:59;;;;;;;;;;;;;;;14.42;100.00;98341.91;5017973;28;19921;-41
2022/11/15 02:20:36;;;;;;;;;;;;;;;14.91;100.00;98343.38;5016757;28;19921;-42
2022/11/15 02:23:20;;;;;;;;;;;;;;;14.41;100.00;98335.09;5017840;28;20024;-41
2022/11/15 02:26:03;;;;;;;;;;;;;;;14.61;100.00;98336.50;5016652;28;19971;-42
2022/11/15 02:28:41;;;;;;;;;;;;;;;14.54;100.00;98337.81;5017408;28;19921;-42
2022/11/15 02:31:24;;;;;;;;;;;;;;;14.23;100.00;98331.81;5018251;28;19928;-41
2022/11/15 02:33:54;;;;;;;;;;;;;;;14.25;100.00;98336.88;5018804;28;19924;-42
2022/11/15 02:36:24;;;;;;;;;;;;;;;14.70;100.00;98334.31;5018465;28;19919;-42
2022/11/15 02:38:52;;;;;;;;;;;;;;;14.76;100.00;98333.97;5016050;28;19921;-42
2022/11/15 02:41:24;;;;;;;;;;;;;;;14.92;100.00;98334.69;5018967;28;20394;-42
2022/11/15 02:44:08;;;;;;;;;;;;;;;14.89;100.00;98324.50;5017478;28;19921;-42
2022/11/15 02:49:19;;;;;;;;;;;;;;;14.34;100.00;98328.56;5027424;28;19932;-42
2022/11/15 02:51:44;;;;;;;;;;;;;;;14.27;100.00;98329.03;5016898;28;19921;-42
2022/11/15 02:54:14;;;;;;;;;;;;;;;14.29;100.00;98324.59;5016618;28;19932;-42
2022/11/15 02:56:40;;;;;;;;;;;;;;;14.41;100.00;98329.03;5017126;28;19917;-42
2022/11/15 02:59:13;;;;;;;;;;;;;;;14.62;100.00;98327.00;5015937;28;19917;-42
2022/11/15 03:01:58;;;;;;;;;;;;;;;14.78;100.00;98326.91;5029467;28;20424;-41
2022/11/15 03:04:30;;;;;;;;;;;;;;;15.19;100.00;98314.03;5018727;28;20486;-42
2022/11/15 03:06:57;;;;;;;;;;;;;;;14.73;100.00;98314.22;5015955;28;20007;-41
2022/11/15 03:09:25;;;;;;;;;;;;;;;15.05;100.00;98319.22;5016229;28;19949;-42
2022/11/15 03:11:53;;;;;;;;;;;;;;;15.47;100.00;98309.72;5020499;28;19925;-42
2022/11/15 03:14:33;;;;;;;;;;;;;;;15.44;100.00;98307.28;5015704;28;19920;-42
2022/11/15 03:17:17;;;;;;;;;;;;;;;14.64;100.00;98305.25;5019386;28;21609;-42
2022/11/15 03:19:42;;;;;;;;;;;;;;;15.11;100.00;98302.44;5020748;28;19972;-42
2022/11/15 03:22:08;;;;;;;;;;;;;;;14.78;100.00;98311.34;5021140;28;19995;-41
2022/11/15 03:24:33;;;;;;;;;;;;;;;14.82;100.00;98307.66;5019955;28;20013;-42
2022/11/15 03:26:59;;;;;;;;;;;;;;;15.32;100.00;98301.09;5020043;28;20059;-42
2022/11/15 03:29:25;;;;;;;;;;;;;;;15.28;100.00;98307.44;5018615;28;19921;-42
2022/11/15 03:31:52;;;;;;;;;;;;;;;15.05;100.00;98298.47;5020526;28;19921;-42
2022/11/15 03:34:17;;;;;;;;;;;;;;;15.69;100.00;98302.22;5008194;28;20039;-41
2022/11/15 03:36:43;;;;;;;;;;;;;;;15.70;100.00;98297.84;5018819;28;20032;-41
2022/11/15 03:39:08;;;;;;;;;;;;;;;15.40;100.00;98293.69;5019247;28;20370;-41
2022/11/15 03:41:53;;;;;;;;;;;;;;;15.13;100.00;98295.41;5020604;28;20650;-41
2022/11/15 03:44:21;;;;;;;;;;;;;;;15.93;100.00;98295.56;5019275;28;19927;-41
2022/11/15 03:46:56;;;;;;;;;;;;;;;15.96;100.00;98284.97;5019555;28;19913;-41
2022/11/15 03:49:25;;;;;;;;;;;;;;;15.98;100.00;98283.09;5018849;28;20390;-41
2022/11/15 03:51:51;;;;;;;;;;;;;;;16.33;100.00;98287.72;5018680;28;19995;-41
2022/11/15 03:54:16;;;;;;;;;;;;;;;15.92;100.00;98288.69;5019524;28;20382;-41
2022/11/15 03:56:41;;;;;;;;;;;;;;;15.99;100.00;98290.00;5019286;28;20450;-41
2022/11/15 03:59:06;;;;;;;;;;;;;;;15.72;100.00;98298.63;5019585;28;20340;-41
2022/11/15 04:01:31;;;;;;;;;;;;;;;15.08;100.00;98302.66;5020107;28;19925;-41
2022/11/15 04:03:57;;;;;;;;;;;;;;;15.00;100.00;98306.53;5020534;28;19936;-39
2022/11/15 04:06:22;;;;;;;;;;;;;;;14.78;100.00;98308.75;5020215;28;19917;-41
2022/11/15 04:08:47;;;;;;;;;;;;;;;14.90;100.00;98305.44;5019234;28;20004;-40
2022/11/15 04:11:12;;;;;;;;;;;;;;;15.12;100.00;98309.28;5020878;28;20751;-41
2022/11/15 04:13:38;;;;;;;;;;;;;;;15.24;100.00;98311.16;5020674;28;19943;-41
2022/11/15 04:16:03;;;;;;;;;;;;;;;15.89;100.00;98306.13;5020449;28;20286;-41
2022/11/15 04:18:28;;;;;;;;;;;;;;;15.16;100.00;98293.44;5017994;28;19948;-41
2022/11/15 04:26:19;;;;;;;;;;;;;;;15.88;100.00;98291.50;5020244;28;19920;-41
2022/11/15 04:31:28;;;;;;;;;;;;;;;15.92;100.00;98283.50;5019795;28;20013;-41
2022/11/15 04:33:54;;;;;;;;;;;;;;;15.73;100.00;98286.47;5020912;28;20524;-42
2022/11/15 04:39:03;;;;;;;;;;;;;;;15.11;100.00;98285.13;5020071;28;19920;-41
2022/11/15 04:41:29;;;;;;;;;;;;;;;15.40;100.00;98298.06;5018398;28;19921;-41
2022/11/15 04:43:54;;;;;;;;;;;;;;;15.11;100.00;98299.88;5019780;28;19927;-41
2022/11/15 04:46:19;;;;;;;;;;;;;;;15.25;100.00;98300.66;5017724;28;19921;-41
2022/11/15 04:48:44;;;;;;;;;;;;;;;15.60;100.00;98286.38;5018326;28;20883;-41
2022/11/15 04:51:10;;;;;;;;;;;;;;;15.09;100.00;98288.75;5019128;28;19948;-41
2022/11/15 04:53:35;;;;;;;;;;;;;;;15.14;100.00;98286.69;5019373;28;19920;-41
2022/11/15 04:56:00;;;;;;;;;;;;;;;15.39;100.00;98292.00;5019879;28;19921;-41
2022/11/15 04:58:25;;;;;;;;;;;;;;;15.24;100.00;98282.63;5016793;28;19943;-41
2022/11/15 05:00:50;;;;;;;;;;;;;;;15.22;100.00;98284.47;5020015;28;20008;-41
2022/11/15 05:05:59;;;;;;;;;;;;;;;15.30;100.00;98283.97;5016978;28;20340;-41
2022/11/15 05:08:25;;;;;;;;;;;;;;;15.44;100.00;98279.59;5018097;28;19925;-41
2022/11/15 05:10:50;;;;;;;;;;;;;;;15.04;100.00;98292.44;5017013;28;20066;-42
2022/11/15 05:13:15;;;;;;;;;;;;;;;15.35;100.00;98280.19;5017798;28;20202;-41
2022/11/15 05:15:40;;;;;;;;;;;;;;;15.58;100.00;98270.09;5020350;28;20631;-41
2022/11/15 05:18:06;;;;;;;;;;;;;;;15.38;100.00;98273.97;5019394;28;19928;-41
2022/11/15 05:20:31;;;;;;;;;;;;;;;15.40;100.00;98278.13;5019264;28;19917;-41
2022/11/15 05:22:58;;;;;;;;;;;;;;;14.92;100.00;98277.66;5017482;28;20277;-41
2022/11/15 05:25:23;;;;;;;;;;;;;;;14.70;100.00;98277.28;5019022;28;19960;-41
2022/11/15 05:27:48;;;;;;;;;;;;;;;15.28;100.00;98278.91;5017311;28;19920;-41
2022/11/15 05:30:14;;;;;;;;;;;;;;;15.32;100.00;98272.56;5019074;28;19921;-42
2022/11/15 05:32:39;;;;;;;;;;;;;;;15.06;100.00;98263.84;5020134;28;19917;-41
2022/11/15 05:35:05;;;;;;;;;;;;;;;15.30;100.00;98265.81;5019789;28;20035;-41
2022/11/15 05:37:30;;;;;;;;;;;;;;;15.25;100.00;98258.31;5019456;28;20019;-42
2022/11/15 05:39:55;;;;;;;;;;;;;;;15.28;100.00;98273.72;5018205;28;21104;-42
2022/11/15 05:42:21;;;;;;;;;;;;;;;14.97;100.00;98278.19;5019472;28;20507;-42
2022/11/15 05:44:47;;;;;;;;;;;;;;;14.95;100.00;98282.66;5020009;28;19996;-42
2022/11/15 05:47:13;;;;;;;;;;;;;;;14.90;100.00;98278.69;5017708;28;19924;-42
2022/11/15 05:49:38;;;;;;;;;;;;;;;14.39;100.00;98279.94;5016227;28;19917;-41
2022/11/15 05:52:04;;;;;;;;;;;;;;;15.19;100.00;98284.63;5018376;28;19921;-41
2022/11/15 05:54:30;;;;;;;;;;;;;;;15.32;100.00;98275.16;5018390;28;19913;-42
2022/11/15 05:56:55;;;;;;;;;;;;;;;15.17;100.00;98265.78;5019263;28;19917;-42
2022/11/15 05:59:20;;;;;;;;;;;;;;;14.89;100.00;98277.00;5018532;28;19921;-41
2022/11/15 06:01:46;;;;;;;;;;;;;;;15.20;100.00;98270.75;5017711;28;19925;-41
2022/11/15 06:04:11;;;;;;;;;;;;;;;15.40;100.00;98267.75;5018225;28;19924;-42
2022/11/15 06:06:36;;;;;;;;;;;;;;;15.14;100.00;98271.13;5017254;28;19921;-42
2022/11/15 06:09:01;;;;;;;;;;;;;;;15.40;100.00;98261.72;5018915;28;19994;-42
2022/11/15 06:11:27;;;;;;;;;;;;;;;15.06;100.00;98267.25;5019111;28;19996;-41
2022/11/15 06:13:52;;;;;;;;;;;;;;;15.42;100.00;98263.28;5018415;28;19913;-41
2022/11/15 06:16:17;;;;;;;;;;;;;;;14.87;100.00;98278.84;5018455;28;19982;-41
2022/11/15 06:18:42;;;;;;;;;;;;;;;14.48;100.00;98273.34;5017358;28;19914;-41
2022/11/15 06:21:07;;;;;;;;;;;;;;;15.45;100.00;98273.47;5017789;28;20395;-41
2022/11/15 06:23:33;;;;;;;;;;;;;;;14.57;100.00;98278.03;5019564;28;19917;-41
2022/11/15 06:25:59;;;;;;;;;;;;;;;14.76;100.00;98282.13;5017597;28;19968;-42
2022/11/15 06:28:24;;;;;;;;;;;;;;;15.44;100.00;98284.78;5019030;28;19917;-42
2022/11/15 06:30:49;;;;;;;;;;;;;;;14.97;100.00;98283.38;5018468;28;19921;-41
2022/11/15 06:33:15;;;;;;;;;;;;;;;14.84;100.00;98282.47;5018792;28;19917;-42
2022/11/15 06:35:40;;;;;;;;;;;;;;;14.91;100.00;98291.53;5018395;28;19925;-42
2022/11/15 06:38:06;;;;;;;;;;;;;;;14.95;100.00;98292.19;5018151;28;19921;-42
2022/11/15 06:40:33;;;;;;;;;;;;;;;15.50;100.00;98282.72;5018443;28;20263;-42
2022/11/15 06:42:59;;;;;;;;;;;;;;;15.20;100.00;98281.97;5018183;28;19943;-42
2022/11/15 06:45:24;;;;;;;;;;;;;;;14.99;100.00;98291.09;5017774;28;19921;-42
2022/11/15 06:47:49;;;;;;;;;;;;;;;15.26;100.00;98291.13;5036512;28;19921;-42
2022/11/15 06:50:14;;;;;;;;;;;;;;;15.18;100.00;98278.63;5019846;28;19924;-42
2022/11/15 06:52:40;;;;;;;;;;;;;;;15.39;100.00;98294.59;5022551;28;20000;-42
2022/11/15 06:55:05;;;;;;;;;;;;;;;14.96;100.00;98299.88;5022776;28;19924;-41
2022/11/15 06:57:32;;;;;;;;;;;;;;;15.52;100.00;98297.25;5021183;28;20373;-42
2022/11/15 06:59:57;;;;;;;;;;;;;;;15.42;100.00;98299.63;5020559;28;19952;-41
2022/11/15 07:02:22;;;;;;;;;;;;;;;15.81;100.00;98292.00;5021449;28;20004;-42
2022/11/15 07:04:47;;;;;;;;;;;;;;;15.96;100.00;98288.41;5022845;28;20002;-41
2022/11/15 07:07:12;;;;;;;;;;;;;;;15.60;100.00;98299.34;5021997;28;19988;-42
2022/11/15 07:09:38;;;;;;;;;;;;;;;15.53;100.00;98313.66;5020544;28;19921;-42
2022/11/15 07:12:03;;;;;;;;;;;;;;;16.02;100.00;98305.34;5021261;28;19921;-41
2022/11/15 07:14:28;;;;;;;;;;;;;;;16.29;100.00;98293.13;5021580;28;19920;-42
2022/11/15 07:16:53;;;;;;;;;;;;;;;16.06;100.00;98299.88;5020453;28;20055;-42
2022/11/15 07:19:19;;;;;;;;;;;;;;;16.27;100.00;98297.59;5021810;28;20011;-42
2022/11/15 07:21:44;;;;;;;;;;;;;;;15.94;100.00;98299.81;5018062;28;19964;-42
2022/11/15 07:24:09;;;;;;;;;;;;;;;16.19;100.00;98297.28;5019107;28;19969;-42
2022/11/15 07:26:34;;;;;;;;;;;;;;;16.48;100.00;98294.50;5022151;28;19917;-42
2022/11/15 07:28:59;;;;;;;;;;;;;;;16.57;100.00;98291.28;5021383;28;19925;-42
2022/11/15 07:31:25;;;;;;;;;;;;;;;16.55;100.00;98282.75;5021176;28;19914;-42
2022/11/15 07:33:50;;;;;;;;;;;;;;;16.40;100.00;98289.84;5021551;28;19921;-42
2022/11/15 07:36:15;;;;;;;;;;;;;;;16.71;100.00;98277.34;5006885;28;20286;-42
2022/11/15 07:38:41;;;;;;;;;;;;;;;15.88;100.00;98277.69;5020018;28;19921;-42
2022/11/15 07:41:06;;;;;;;;;;;;;;;16.02;100.00;98292.38;5020542;28;20393;-42
2022/11/15 07:43:33;;;;;;;;;;;;;;;16.29;100.00;98293.13;5021238;28;20775;-42
2022/11/15 07:45:59;;;;;;;;;;;;;;;16.14;100.00;98288.97;5020510;28;19916;-42
2022/11/15 07:48:24;;;;;;;;;;;;;;;16.64;100.00;98282.13;5019165;28;19921;-42
2022/11/15 07:50:49;;;;;;;;;;;;;;;16.62;100.00;98283.16;5021041;28;20048;-41
2022/11/15 07:53:14;;;;;;;;;;;;;;;16.86;100.00;98280.69;5021025;28;19964;-42
2022/11/15 07:55:40;;;;;;;;;;;;;;;16.83;100.00;98279.13;5020667;28;19917;-42
2022/11/15 07:58:07;;;;;;;;;;;;;;;16.72;100.00;98282.44;5020459;28;19917;-42
2022/11/15 08:00:32;;;;;;;;;;;;;;;16.77;100.00;98287.31;5020068;28;19920;-42
2022/11/15 08:03:08;;;;;;;;;;;;;;;16.77;100.00;98278.69;5021872;28;19932;-42
2022/11/15 08:05:34;;;;;;;;;;;;;;;16.84;100.00;98275.59;5020402;28;19995;-41
2022/11/15 08:07:59;;;;;;;;;;;;;;;16.46;100.00;98271.22;5021364;28;19917;-42
2022/11/15 08:10:24;;;;;;;;;;;;;;;16.36;100.00;98280.56;5019217;28;20383;-42
2022/11/15 08:12:56;;;;;;;;;;;;;;;16.99;100.00;98276.31;5020756;28;19921;-42
2022/11/15 08:15:21;;;;;;;;;;;;;;;16.93;100.00;98263.72;5021726;28;19925;-42
2022/11/15 08:17:47;;;;;;;;;;;;;;;16.43;100.00;98275.78;5021291;28;19923;-42
2022/11/15 08:20:12;;;;;;;;;;;;;;;16.48;100.00;98268.50;5020301;28;20008;-43
2022/11/15 08:22:37;;;;;;;;;;;;;;;16.70;100.00;98273.09;5020927;28;20014;-42
2022/11/15 08:25:02;;;;;;;;;;;;;;;16.90;100.00;98250.91;5021815;28;19957;-42
2022/11/15 08:27:28;;;;;;;;;;;;;;;16.29;100.00;98267.16;5021073;28;19960;-42
2022/11/15 08:29:53;;;;;;;;;;;;;;;16.73;100.00;98263.28;5019545;28;20320;-42
2022/11/15 08:32:18;;;;;;;;;;;;;;;15.80;100.00;98270.38;5020905;28;20378;-42
2022/11/15 08:34:44;;;;;;;;;;;;;;;16.44;100.00;98260.06;5020959;28;19920;-42
2022/11/15 08:37:09;;;;;;;;;;;;;;;16.61;100.00;98260.72;5021364;28;19917;-42
2022/11/15 08:39:34;;;;;;;;;;;;;;;16.72;100.00;98256.44;5020937;28;20366;-41
2022/11/15 08:41:59;;;;;;;;;;;;;;;16.30;100.00;98250.63;5020222;28;20447;-42
2022/11/15 08:44:25;;;;;;;;;;;;;;;16.55;100.00;98261.13;5020476;28;20429;-42
2022/11/15 08:46:50;;;;;;;;;;;;;;;16.63;100.00;98248.44;5019357;28;19928;-42
2022/11/15 08:49:15;;;;;;;;;;;;;;;16.05;100.00;98258.41;5018057;28;20478;-42
2022/11/15 08:51:41;;;;;;;;;;;;;;;16.99;100.00;98250.28;5020579;28;19925;-42
2022/11/15 08:54:06;;;;;;;;;;;;;;;17.07;100.00;98242.75;5020332;28;19963;-42
2022/11/15 08:56:31;;;;;;;;;;;;;;;16.63;100.00;98246.69;5020052;28;20409;-42
2022/11/15 08:58:56;;;;;;;;;;;;;;;17.00;100.00;98244.13;5019217;28;19942;-42
2022/11/15 09:01:22;;;;;;;;;;;;;;;17.16;100.00;98241.28;5020895;28;19920;-42
2022/11/15 09:03:47;;;;;;;;;;;;;;;17.08;100.00;98249.66;5019948;28;19917;-42
2022/11/15 09:06:13;;;;;;;;;;;;;;;17.13;100.00;98231.09;5020559;28;20412;-41
2022/11/15 09:08:38;;;;;;;;;;;;;;;16.64;100.00;98239.69;5019181;28;20516;-42
2022/11/15 09:11:04;;;;;;;;;;;;;;;17.40;100.00;98238.69;5017959;28;19928;-41
2022/11/15 09:13:29;;;;;;;;;;;;;;;17.29;100.00;98241.25;5020173;28;19928;-42
2022/11/15 09:15:59;;;;;;;;;;;;;;;17.69;100.00;98233.13;5020126;28;19921;-42
2022/11/15 09:18:24;;;;;;;;;;;;;;;17.81;100.00;98232.25;5019720;28;20348;-42
2022/11/15 09:20:49;;;;;;;;;;;;;;;17.62;100.00;98237.13;5018857;28;20163;-42
2022/11/15 09:23:14;;;;;;;;;;;;;;;17.53;100.00;98239.47;5019777;28;19921;-42
2022/11/15 09:25:40;;;;;;;;;;;;;;;17.84;100.00;98232.03;5020607;28;20368;-42
2022/11/15 09:28:05;;;;;;;;;;;;;;;17.71;100.00;98231.25;5019290;28;19913;-42
2022/11/15 09:30:31;;;;;;;;;;;;;;;16.73;100.00;98242.50;5019524;28;20398;-42
2022/11/15 09:32:56;;;;;;;;;;;;;;;17.16;100.00;98245.66;5019221;28;19943;-42
2022/11/15 09:35:21;;;;;;;;;;;;;;;17.47;100.00;98232.13;5019702;28;19917;-42
2022/11/15 09:37:46;;;;;;;;;;;;;;;16.89;100.00;98239.69;5019216;28;20003;-42
2022/11/15 09:40:15;;;;;;;;;;;;;;;16.23;100.00;98251.97;5019028;28;19917;-42
2022/11/15 09:42:57;;;;;;;;;;;;;;;17.59;100.00;98237.38;5002314;28;19995;-42
2022/11/15 09:45:28;;;;;;;;;;;;;;;18.02;100.00;98229.00;5018180;28;19975;-42
2022/11/15 09:48:00;;;;;;;;;;;;;;;17.60;100.00;98241.63;5033673;28;20014;-42
2022/11/15 09:50:31;;;;;;;;;;;;;;;17.93;100.00;98233.16;5015754;28;19971;-41
2022/11/15 09:52:56;;;;;;;;;;;;;;;18.06;100.00;98235.63;5019496;28;19917;-42
2022/11/15 09:55:23;;;;;;;;;;;;;;;17.92;100.00;98234.06;5019439;28;19924;-41
2022/11/15 09:57:56;;;;;;;;;;;;;;;17.87;100.00;98231.81;5018342;28;19917;-42
2022/11/15 10:00:40;;;;;;;;;;;;;;;18.02;100.00;98222.03;5000698;28;19922;-42
2022/11/15 10:03:17;;;;;;;;;;;;;;;18.18;100.00;98219.09;5017775;28;20278;-42
2022/11/15 10:05:46;;;;;;;;;;;;;;;17.97;100.00;98232.81;5019250;28;19971;-42
2022/11/15 10:08:11;;;;;;;;;;;;;;;16.55;100.00;98235.97;5017832;28;20282;-42
2022/11/15 10:10:41;;;;;;;;;;;;;;;17.55;100.00;98226.34;5018347;28;19917;-42
2022/11/15 10:13:13;;;;;;;;;;;;;;;17.77;100.00;98220.41;5018453;28;19964;-42
2022/11/15 10:15:38;;;;;;;;;;;;;;;17.14;100.00;98223.16;5001784;28;19975;-42
2022/11/15 10:18:21;;;;;;;;;;;;;;;17.71;100.00;98205.22;5017691;28;19917;-42
2022/11/15 10:20:48;;;;;;;;;;;;;;;17.72;100.00;98196.44;5020335;28;19917;-42
2022/11/15 10:23:14;;;;;;;;;;;;;;;18.42;100.00;98181.66;5020840;28;19921;-42
2022/11/15 10:25:39;;;;;;;;;;;;;;;18.45;100.00;98184.03;5023724;28;19917;-42
2022/11/15 10:28:19;;;;;;;;;;;;;;;17.79;100.00;98179.44;5021685;28;19995;-42
2022/11/15 10:30:46;;;;;;;;;;;;;;;17.12;100.00;98190.41;5023232;28;19924;-42
2022/11/15 10:33:11;;;;;;;;;;;;;;;18.04;100.00;98175.00;5022616;28;19921;-42
2022/11/15 10:35:36;;;;;;;;;;;;;;;17.67;100.00;98168.13;5021930;28;20274;-42
2022/11/15 10:38:05;;;;;;;;;;;;;;;18.15;100.00;98167.19;5023235;28;19917;-42
2022/11/15 10:40:30;;;;;;;;;;;;;;;17.14;100.00;98172.91;5021898;28;19967;-42
2022/11/15 10:43:13;;;;;;;;;;;;;;;17.45;100.00;98166.31;5021659;28;20358;-42
2022/11/15 10:45:38;;;;;;;;;;;;;;;16.98;100.00;98175.78;5021523;28;19960;-42
2022/11/15 10:48:13;;;;;;;;;;;;;;;18.01;100.00;98159.59;5022211;28;19956;-42
2022/11/15 10:50:39;;;;;;;;;;;;;;;17.98;100.00;98158.91;5022599;28;19917;-42
2022/11/15 10:53:04;;;;;;;;;;;;;;;18.21;100.00;98145.06;5004066;28;20371;-42
2022/11/15 10:55:30;;;;;;;;;;;;;;;18.20;100.00;98144.25;5022584;28;19917;-42
2022/11/15 10:58:03;;;;;;;;;;;;;;;18.32;100.00;98145.88;5021943;28;19917;-42
2022/11/15 11:00:33;;;;;;;;;;;;;;;18.13;100.00;98137.81;5022522;28;20012;-42
2022/11/15 11:02:59;;;;;;;;;;;;;;;18.30;100.00;98141.75;5022155;28;19927;-41
2022/11/15 11:05:26;;;;;;;;;;;;;;;17.97;100.00;98133.81;5023072;28;19917;-41
2022/11/15 11:07:56;;;;;;;;;;;;;;;18.12;100.00;98130.97;5024895;28;19917;-42
2022/11/15 11:10:21;;;;;;;;;;;;;;;18.26;100.00;98122.06;5021656;28;19924;-42
2022/11/15 11:12:46;;;;;;;;;;;;;;;17.32;100.00;98136.94;5023212;28;19988;-42
2022/11/15 11:15:12;;;;;;;;;;;;;;;17.52;100.00;98128.47;5021990;28;19921;-42
2022/11/15 11:17:41;;;;;;;;;;;;;;;17.62;100.00;98117.38;5020655;28;19917;-42
2022/11/15 11:20:09;;;;;;;;;;;;;;;18.19;100.00;98108.69;5021562;28;19929;-42
2022/11/15 11:22:54;;;;;;;;;;;;;;;18.41;100.00;98096.59;5021995;28;20011;-42
2022/11/15 11:25:41;;;;;;;;;;;;;;;18.62;100.00;98087.06;5020994;28;20028;-42
2022/11/15 11:28:09;;;;;;;;;;;;;;;19.11;100.00;98087.53;5020595;28;19983;-42
2022/11/15 11:30:53;;;;;;;;;;;;;;;18.48;100.00;98093.38;5021289;28;19917;-42
2022/11/15 11:33:22;;;;;;;;;;;;;;;18.59;100.00;98082.13;5007922;28;19917;-42
2022/11/15 11:35:47;;;;;;;;;;;;;;;18.10;100.00;98096.38;5020825;28;20444;-42
2022/11/15 11:38:39;;;;;;;;;;;;;;;17.31;100.00;98091.00;5019838;28;19917;-42
2022/11/15 11:41:13;;;;;;;;;;;;;;;17.94;100.00;98084.53;5020327;28;20035;-42
2022/11/15 11:43:38;;;;;;;;;;;;;;;18.27;100.00;98067.22;5021021;28;20059;-42
2022/11/15 11:46:14;;;;;;;;;;;;;;;18.11;100.00;98077.16;5021771;28;20015;-42
2022/11/15 11:48:42;;;;;;;;;;;;;;;18.75;100.00;98066.88;5018301;28;19917;-42
2022/11/15 11:51:22;;;;;;;;;;;;;;;17.80;100.00;98063.88;5021775;28;19925;-42
2022/11/15 11:53:54;;;;;;;;;;;;;;;17.98;100.00;98067.72;5021421;28;19921;-42
2022/11/15 11:56:25;;;;;;;;;;;;;;;17.30;100.00;98065.94;5020254;28;19953;-42
2022/11/15 11:58:50;;;;;;;;;;;;;;;17.68;100.00;98060.47;5018656;28;20408;-42
2022/11/15 12:01:36;;;;;;;;;;;;;;;17.64;100.00;98061.63;5009781;28;19928;-42
2022/11/15 12:04:01;;;;;;;;;;;;;;;17.76;100.00;98059.84;5020574;28;19964;-42
2022/11/15 12:06:26;;;;;;;;;;;;;;;17.51;100.00;98053.09;5021039;28;19995;-41
2022/11/15 12:09:02;;;;;;;;;;;;;;;18.77;100.00;98038.94;5021324;28;19999;-42
2022/11/15 12:11:46;;;;;;;;;;;;;;;18.37;100.00;98036.88;5020025;28;19917;-42
2022/11/15 12:14:23;;;;;;;;;;;;;;;18.78;100.00;98035.34;5021853;28;19947;-42
2022/11/15 12:16:49;;;;;;;;;;;;;;;19.56;100.00;98025.44;5021514;28;20459;-42
2022/11/15 12:19:14;;;;;;;;;;;;;;;19.84;99.21;98015.28;5020066;28;20012;-42
2022/11/15 12:21:39;;;;;;;;;;;;;;;19.65;100.00;98018.63;5020883;28;20374;-42
2022/11/15 12:24:25;;;;;;;;;;;;;;;19.07;100.00;98034.78;5021261;28;19917;-42
2022/11/15 12:26:52;;;;;;;;;;;;;;;19.71;100.00;98014.69;5009636;28;19951;-42
2022/11/15 12:29:24;;;;;;;;;;;;;;;19.29;99.92;98012.09;5005793;28;20393;-42
2022/11/15 12:31:50;;;;;;;;;;;;;;;18.70;100.00;98011.66;5021420;28;19920;-42
2022/11/15 12:34:28;;;;;;;;;;;;;;;19.11;100.00;98001.41;5003642;28;19913;-42
2022/11/15 12:36:54;;;;;;;;;;;;;;;18.67;100.00;98006.69;5019875;28;19914;-42
2022/11/15 12:39:19;;;;;;;;;;;;;;;18.86;99.41;97994.78;5020243;28;20472;-42
2022/11/15 12:42:04;;;;;;;;;;;;;;;19.35;96.46;97990.72;5019605;28;20294;-42
2022/11/15 12:44:29;;;;;;;;;;;;;;;18.68;99.44;97990.09;5025351;28;20329;-42
2022/11/15 12:46:55;;;;;;;;;;;;;;;18.55;98.62;97986.81;5020641;28;19917;-42
2022/11/15 12:49:23;;;;;;;;;;;;;;;18.90;94.88;97975.31;5018780;28;20018;-42
2022/11/15 12:51:48;;;;;;;;;;;;;;;19.43;94.89;97977.81;5021185;28;20465;-42
2022/11/15 12:54:22;;;;;;;;;;;;;;;18.80;94.51;97976.06;5020096;28;20004;-42
2022/11/15 12:57:03;;;;;;;;;;;;;;;18.46;92.68;97983.19;5020340;28;19928;-42